X  Luk Metar data     EKYT Aalborg Airport
Temperatur
36°F Temperatur
32°F Dugpunkt
87% Fugtighed



Vind
10 MPT
16 KM/T
4 M/S
9 KNOB



70°
ØNØ
Nuværende forhold

Overskyet Overskyet
Tryk 1028.92 (hPa) - 30.38 (inHg)
Sigt 6.2 (mil) - 10 (km)
Lufthavn
Lufthavnskode EKYT

Lokation: Aalborg Airport
Afstand: 54 (mi)

Metar:
EKYT 041720Z AUTO 07009KT 040V100 9999 OVC022/// 02/M00 Q1029

Tid: 04-12-2022 18:20 CET